UAE75T YBBN-OMDB
Flight info
| Callsign | UAE75T |
|---|---|
| Flight time | N/A |
| Altitude | 28000 |
| Route | WACKO V250 UNVAT DCT 2456S14730E 23S143E/N0506F300 22S141E 21S139E 19S136E 18S134E 17S132E 16S130E DCT SUNPO DCT ONOXA/N0511F320 G326 BLI M766 BKL/N0503F340 M766 KAT P570 TVM V27 RUVAN V28 DOTAT/N0497F360 P570 ITURA M762 VAXAS/N0478F240 M762 MIVEK P574 IMPED |
| Aircraft | B77W/H-SDE1E2E3FGHIJ2J3J4J5M1RWXY/LB1D1 |
Departure
| Time | N/A |
|---|---|
| Airport | Brisbane International Airport (YBBN) |
Arrival
| Time | 2026-05-08 06:22 |
|---|---|
| Airport | Dubai International Airport (OMDB) |
| Time | Latitude | Longitude | Altitude | Speed | Heading |
|---|---|---|---|---|---|
| 2026-05-08 05:00 | 18.34428 | 62.84946 | 36011 ft | 455 kts | 301° |
| 2026-05-08 05:00 | 18.38126 | 62.79582 | 36010 ft | 454 kts | 301° |
| 2026-05-08 05:01 | 18.41892 | 62.74116 | 36009 ft | 455 kts | 301° |
| 2026-05-08 05:01 | 18.45600 | 62.68732 | 36007 ft | 455 kts | 301° |
| 2026-05-08 05:02 | 18.49317 | 62.63330 | 36008 ft | 455 kts | 301° |
| 2026-05-08 05:02 | 18.53045 | 62.57908 | 36006 ft | 454 kts | 301° |
| 2026-05-08 05:03 | 18.56729 | 62.52545 | 36006 ft | 454 kts | 301° |
| 2026-05-08 05:03 | 18.60428 | 62.47133 | 36006 ft | 454 kts | 301° |
| 2026-05-08 05:04 | 18.64091 | 62.41719 | 36006 ft | 456 kts | 301° |
| 2026-05-08 05:04 | 18.67826 | 62.36190 | 36005 ft | 471 kts | 301° |
| 2026-05-08 05:05 | 18.71671 | 62.30502 | 36017 ft | 477 kts | 301° |
| 2026-05-08 05:05 | 18.75532 | 62.24788 | 36017 ft | 479 kts | 301° |
| 2026-05-08 05:06 | 18.79363 | 62.19112 | 36016 ft | 477 kts | 301° |
| 2026-05-08 05:06 | 18.83240 | 62.13363 | 36016 ft | 477 kts | 301° |
| 2026-05-08 05:07 | 18.87069 | 62.07680 | 36016 ft | 477 kts | 301° |
| 2026-05-08 05:07 | 18.90928 | 62.01946 | 36013 ft | 477 kts | 301° |
| 2026-05-08 05:08 | 18.94756 | 61.96254 | 36014 ft | 477 kts | 301° |
| 2026-05-08 05:08 | 18.98612 | 61.90516 | 36014 ft | 478 kts | 301° |
| 2026-05-08 05:09 | 19.02432 | 61.84824 | 36013 ft | 477 kts | 301° |
| 2026-05-08 05:09 | 19.06275 | 61.79093 | 36012 ft | 478 kts | 301° |
| 2026-05-08 05:10 | 19.12027 | 61.70505 | 36008 ft | 478 kts | 301° |
| 2026-05-08 05:11 | 19.15576 | 61.65201 | 36008 ft | 478 kts | 301° |
| 2026-05-08 05:11 | 19.19404 | 61.59475 | 36006 ft | 477 kts | 301° |
| 2026-05-08 05:12 | 19.23228 | 61.53749 | 36006 ft | 478 kts | 301° |
| 2026-05-08 05:12 | 19.27050 | 61.48021 | 36005 ft | 478 kts | 301° |
| 2026-05-08 05:13 | 19.30890 | 61.42261 | 36005 ft | 477 kts | 301° |
| 2026-05-08 05:13 | 19.34702 | 61.36536 | 36003 ft | 478 kts | 301° |
| 2026-05-08 05:14 | 19.38521 | 61.30797 | 36017 ft | 478 kts | 301° |
| 2026-05-08 05:14 | 19.42353 | 61.25033 | 36015 ft | 477 kts | 301° |
| 2026-05-08 05:15 | 19.46159 | 61.19302 | 36015 ft | 477 kts | 301° |
| 2026-05-08 05:15 | 19.49980 | 61.13543 | 36014 ft | 477 kts | 301° |
| 2026-05-08 05:16 | 19.53799 | 61.07781 | 36014 ft | 478 kts | 301° |
| 2026-05-08 05:16 | 19.57620 | 61.02011 | 36012 ft | 478 kts | 301° |
| 2026-05-08 05:17 | 19.61443 | 60.96233 | 36012 ft | 477 kts | 301° |
| 2026-05-08 05:17 | 19.65269 | 60.90445 | 36011 ft | 476 kts | 301° |
| 2026-05-08 05:18 | 19.69074 | 60.84682 | 36010 ft | 477 kts | 301° |
| 2026-05-08 05:18 | 19.72881 | 60.78911 | 36011 ft | 478 kts | 301° |
| 2026-05-08 05:19 | 19.76691 | 60.73130 | 36009 ft | 477 kts | 301° |
| 2026-05-08 05:19 | 19.80491 | 60.67359 | 36009 ft | 477 kts | 301° |
| 2026-05-08 05:20 | 19.84296 | 60.61574 | 36009 ft | 477 kts | 301° |
| 2026-05-08 05:20 | 19.88069 | 60.55833 | 36007 ft | 477 kts | 301° |
| 2026-05-08 05:21 | 19.91886 | 60.50018 | 36007 ft | 478 kts | 301° |
| 2026-05-08 05:21 | 19.95671 | 60.44248 | 36006 ft | 477 kts | 301° |
| 2026-05-08 05:22 | 19.99471 | 60.38448 | 36006 ft | 477 kts | 301° |
| 2026-05-08 05:22 | 20.03315 | 60.32708 | 36016 ft | 480 kts | 305° |
| 2026-05-08 05:23 | 20.08269 | 60.27957 | 36020 ft | 491 kts | 321° |
| 2026-05-08 05:23 | 20.14031 | 60.24248 | 36015 ft | 495 kts | 324° |
| 2026-05-08 05:24 | 20.20010 | 60.20470 | 36014 ft | 494 kts | 323° |
| 2026-05-08 05:24 | 20.25927 | 60.16721 | 36015 ft | 495 kts | 323° |
| 2026-05-08 05:25 | 20.31844 | 60.12965 | 36013 ft | 493 kts | 323° |
| 2026-05-08 05:25 | 20.37771 | 60.09198 | 36014 ft | 495 kts | 323° |
| 2026-05-08 05:26 | 20.43671 | 60.05443 | 36014 ft | 496 kts | 323° |
| 2026-05-08 05:26 | 20.49598 | 60.01668 | 36013 ft | 495 kts | 323° |
| 2026-05-08 05:27 | 20.55520 | 59.97892 | 36013 ft | 495 kts | 324° |
| 2026-05-08 05:27 | 20.61421 | 59.94127 | 36012 ft | 494 kts | 323° |
| 2026-05-08 05:28 | 20.67337 | 59.90346 | 36011 ft | 494 kts | 323° |
| 2026-05-08 05:28 | 20.73246 | 59.86568 | 36011 ft | 495 kts | 324° |
| 2026-05-08 05:29 | 20.79139 | 59.82796 | 36011 ft | 494 kts | 323° |
| 2026-05-08 05:29 | 20.85065 | 59.79000 | 36011 ft | 494 kts | 323° |
| 2026-05-08 05:30 | 20.91012 | 59.75187 | 36010 ft | 494 kts | 323° |
| 2026-05-08 05:30 | 20.96933 | 59.71386 | 36011 ft | 496 kts | 323° |
| 2026-05-08 05:31 | 21.02839 | 59.67592 | 36010 ft | 494 kts | 323° |
| 2026-05-08 05:31 | 21.08721 | 59.63806 | 36009 ft | 494 kts | 323° |
| 2026-05-08 05:32 | 21.14627 | 59.60003 | 36006 ft | 494 kts | 323° |
| 2026-05-08 05:32 | 21.20300 | 59.56346 | 36006 ft | 495 kts | 323° |
| 2026-05-08 05:33 | 21.26182 | 59.52550 | 36005 ft | 494 kts | 323° |
| 2026-05-08 05:33 | 21.32096 | 59.48729 | 36005 ft | 495 kts | 323° |
| 2026-05-08 05:34 | 21.37996 | 59.44912 | 36005 ft | 495 kts | 323° |
| 2026-05-08 05:34 | 21.43905 | 59.41087 | 36005 ft | 496 kts | 323° |
| 2026-05-08 05:35 | 21.49817 | 59.37257 | 36005 ft | 495 kts | 323° |
| 2026-05-08 05:35 | 21.55728 | 59.33423 | 36019 ft | 493 kts | 323° |
| 2026-05-08 05:36 | 21.61423 | 59.29725 | 36020 ft | 494 kts | 323° |
| 2026-05-08 05:36 | 21.66690 | 59.26305 | 36022 ft | 494 kts | 323° |
| 2026-05-08 05:37 | 21.72453 | 59.22559 | 36024 ft | 494 kts | 323° |
| 2026-05-08 05:37 | 21.78355 | 59.18720 | 36025 ft | 494 kts | 323° |
| 2026-05-08 05:38 | 21.84237 | 59.14890 | 36027 ft | 494 kts | 323° |
| 2026-05-08 05:38 | 21.90142 | 59.11040 | 36029 ft | 494 kts | 323° |
| 2026-05-08 05:39 | 21.96020 | 59.07205 | 36030 ft | 494 kts | 323° |
| 2026-05-08 05:39 | 22.01901 | 59.03365 | 36032 ft | 493 kts | 323° |
| 2026-05-08 05:40 | 22.07789 | 58.99515 | 36033 ft | 494 kts | 323° |
| 2026-05-08 05:40 | 22.13673 | 58.95664 | 36028 ft | 493 kts | 323° |
| 2026-05-08 05:41 | 22.19303 | 58.91976 | 36028 ft | 494 kts | 323° |
| 2026-05-08 05:41 | 22.24843 | 58.88345 | 36029 ft | 493 kts | 323° |
| 2026-05-08 05:42 | 22.30723 | 58.84485 | 36030 ft | 495 kts | 323° |
| 2026-05-08 05:42 | 22.36583 | 58.80636 | 36031 ft | 495 kts | 323° |
| 2026-05-08 05:43 | 22.42466 | 58.76767 | 36030 ft | 495 kts | 323° |
| 2026-05-08 05:43 | 22.48361 | 58.72887 | 36031 ft | 494 kts | 323° |
| 2026-05-08 05:44 | 22.54255 | 58.69004 | 36031 ft | 494 kts | 323° |
| 2026-05-08 05:44 | 22.60119 | 58.65136 | 36033 ft | 495 kts | 323° |
| 2026-05-08 05:45 | 22.65974 | 58.61270 | 36034 ft | 495 kts | 323° |
| 2026-05-08 05:45 | 22.71840 | 58.57396 | 36035 ft | 494 kts | 323° |
| 2026-05-08 05:46 | 22.77714 | 58.53510 | 36036 ft | 495 kts | 323° |
| 2026-05-08 05:46 | 22.83587 | 58.49623 | 36039 ft | 495 kts | 323° |
| 2026-05-08 05:47 | 22.89502 | 58.45703 | 36042 ft | 494 kts | 323° |
| 2026-05-08 05:47 | 22.95359 | 58.41817 | 36047 ft | 496 kts | 323° |
| 2026-05-08 05:48 | 23.01255 | 58.37903 | 36050 ft | 494 kts | 323° |
| 2026-05-08 05:48 | 23.07121 | 58.34001 | 36060 ft | 495 kts | 323° |
| 2026-05-08 05:49 | 23.12961 | 58.30112 | 36058 ft | 493 kts | 323° |
| 2026-05-08 05:49 | 23.18825 | 58.26204 | 36060 ft | 494 kts | 323° |
| 2026-05-08 05:50 | 23.23697 | 58.22953 | 36061 ft | 494 kts | 323° |
| 2026-05-08 05:50 | 23.29247 | 58.19246 | 36054 ft | 494 kts | 323° |
| 2026-05-08 05:51 | 23.35105 | 58.15331 | 36045 ft | 493 kts | 323° |
| 2026-05-08 05:51 | 23.40409 | 58.10706 | 36035 ft | 483 kts | 307° |
| 2026-05-08 05:52 | 23.44448 | 58.04961 | 36032 ft | 477 kts | 301° |
| 2026-05-08 05:52 | 23.48314 | 57.99095 | 36029 ft | 477 kts | 301° |
| 2026-05-08 05:53 | 23.52167 | 57.93221 | 36025 ft | 477 kts | 301° |
| 2026-05-08 05:53 | 23.56029 | 57.87318 | 36021 ft | 478 kts | 301° |
| 2026-05-08 05:54 | 23.59873 | 57.81455 | 36015 ft | 478 kts | 303° |
| 2026-05-08 05:54 | 23.63977 | 57.75738 | 36016 ft | 479 kts | 304° |
| 2026-05-08 05:55 | 23.68098 | 57.70018 | 36014 ft | 481 kts | 303° |
| 2026-05-08 05:55 | 23.72207 | 57.64289 | 36011 ft | 480 kts | 303° |
| 2026-05-08 05:56 | 23.76329 | 57.58525 | 36010 ft | 480 kts | 304° |
| 2026-05-08 05:56 | 23.80409 | 57.52810 | 36009 ft | 479 kts | 303° |
| 2026-05-08 05:57 | 23.84536 | 57.47018 | 36009 ft | 479 kts | 303° |
| 2026-05-08 05:57 | 23.88615 | 57.41286 | 36007 ft | 477 kts | 303° |
| 2026-05-08 05:57 | 23.90625 | 57.38462 | 36006 ft | 465 kts | 303° |
| 2026-05-08 05:58 | 23.92581 | 57.35712 | 36006 ft | 456 kts | 303° |
| 2026-05-08 05:58 | 23.96474 | 57.30226 | 36019 ft | 454 kts | 303° |
| 2026-05-08 05:59 | 24.00327 | 57.24788 | 36019 ft | 455 kts | 303° |
| 2026-05-08 05:59 | 24.03888 | 57.19759 | 35999 ft | 452 kts | 303° |
| 2026-05-08 05:59 | 24.05624 | 57.17308 | 35554 ft | 448 kts | 303° |
| 2026-05-08 06:00 | 24.07475 | 57.14690 | 34770 ft | 449 kts | 303° |
| 2026-05-08 06:00 | 24.09386 | 57.11986 | 33951 ft | 449 kts | 303° |
| 2026-05-08 06:00 | 24.11285 | 57.09298 | 33170 ft | 449 kts | 302° |
| 2026-05-08 06:00 | 24.13211 | 57.06569 | 32390 ft | 448 kts | 302° |
| 2026-05-08 06:01 | 24.15104 | 57.03886 | 31617 ft | 453 kts | 303° |
| 2026-05-08 06:01 | 24.16973 | 57.01228 | 30836 ft | 474 kts | 303° |
| 2026-05-08 06:01 | 24.19008 | 56.98342 | 30305 ft | 472 kts | 303° |
| 2026-05-08 06:01 | 24.20993 | 56.95528 | 29848 ft | 466 kts | 303° |
| 2026-05-08 06:02 | 24.22975 | 56.92716 | 29333 ft | 462 kts | 303° |
| 2026-05-08 06:02 | 24.24905 | 56.89975 | 28804 ft | 458 kts | 303° |
| 2026-05-08 06:02 | 24.26846 | 56.87214 | 28289 ft | 455 kts | 303° |
| 2026-05-08 06:02 | 24.28770 | 56.84476 | 27775 ft | 453 kts | 303° |
| 2026-05-08 06:03 | 24.30665 | 56.81777 | 27243 ft | 450 kts | 303° |
| 2026-05-08 06:03 | 24.32573 | 56.79058 | 26697 ft | 447 kts | 303° |
| 2026-05-08 06:03 | 24.34464 | 56.76362 | 26158 ft | 444 kts | 303° |
| 2026-05-08 06:03 | 24.36323 | 56.73711 | 25617 ft | 441 kts | 303° |
| 2026-05-08 06:04 | 24.38187 | 56.71051 | 25079 ft | 437 kts | 303° |
| 2026-05-08 06:04 | 24.40021 | 56.68432 | 24545 ft | 434 kts | 303° |
| 2026-05-08 06:04 | 24.41865 | 56.65797 | 24005 ft | 431 kts | 304° |
| 2026-05-08 06:04 | 24.43698 | 56.63252 | 23482 ft | 430 kts | 307° |
| 2026-05-08 06:05 | 24.45734 | 56.60827 | 22953 ft | 429 kts | 309° |
| 2026-05-08 06:05 | 24.47764 | 56.58456 | 22415 ft | 427 kts | 309° |
| 2026-05-08 06:05 | 24.49794 | 56.56089 | 21869 ft | 425 kts | 309° |
| 2026-05-08 06:05 | 24.51820 | 56.53722 | 21320 ft | 422 kts | 310° |
| 2026-05-08 06:06 | 24.53820 | 56.51384 | 20785 ft | 419 kts | 310° |
| 2026-05-08 06:06 | 24.55818 | 56.49046 | 20170 ft | 420 kts | 310° |
| 2026-05-08 06:06 | 24.57834 | 56.46684 | 19175 ft | 428 kts | 310° |
| 2026-05-08 06:06 | 24.59848 | 56.44324 | 18456 ft | 429 kts | 311° |
| 2026-05-08 06:07 | 24.61880 | 56.41944 | 17941 ft | 423 kts | 311° |
| 2026-05-08 06:07 | 24.63878 | 56.39601 | 17421 ft | 419 kts | 311° |
| 2026-05-08 06:07 | 24.65864 | 56.37271 | 16884 ft | 415 kts | 311° |
| 2026-05-08 06:07 | 24.67802 | 56.34997 | 16341 ft | 412 kts | 311° |
| 2026-05-08 06:08 | 24.69775 | 56.32679 | 15777 ft | 410 kts | 310° |
| 2026-05-08 06:08 | 24.71668 | 56.30361 | 15219 ft | 405 kts | 306° |
| 2026-05-08 06:08 | 24.73043 | 56.28189 | 14747 ft | 401 kts | 301° |
| 2026-05-08 06:08 | 24.74547 | 56.25632 | 14193 ft | 398 kts | 301° |
| 2026-05-08 06:09 | 24.75835 | 56.23430 | 13719 ft | 396 kts | 301° |
| 2026-05-08 06:09 | 24.77309 | 56.20906 | 13174 ft | 394 kts | 301° |
| 2026-05-08 06:09 | 24.78774 | 56.18397 | 12625 ft | 391 kts | 301° |
| 2026-05-08 06:09 | 24.80245 | 56.15873 | 12068 ft | 389 kts | 301° |
| 2026-05-08 06:10 | 24.81705 | 56.13368 | 11515 ft | 386 kts | 301° |
| 2026-05-08 06:10 | 24.83138 | 56.10907 | 11102 ft | 380 kts | 302° |
| 2026-05-08 06:10 | 24.84538 | 56.08503 | 11012 ft | 364 kts | 302° |
| 2026-05-08 06:10 | 24.85879 | 56.06198 | 10909 ft | 350 kts | 302° |
| 2026-05-08 06:11 | 24.87168 | 56.03981 | 10773 ft | 338 kts | 302° |
| 2026-05-08 06:11 | 24.88370 | 56.01842 | 10631 ft | 327 kts | 300° |
| 2026-05-08 06:11 | 24.89497 | 55.99700 | 10487 ft | 316 kts | 299° |
| 2026-05-08 06:11 | 24.90572 | 55.97640 | 10348 ft | 306 kts | 300° |
| 2026-05-08 06:12 | 24.91627 | 55.95626 | 10159 ft | 299 kts | 300° |
| 2026-05-08 06:12 | 24.92666 | 55.93654 | 9763 ft | 299 kts | 300° |
| 2026-05-08 06:12 | 24.93707 | 55.91664 | 9367 ft | 300 kts | 300° |
| 2026-05-08 06:12 | 24.94747 | 55.89655 | 8992 ft | 300 kts | 300° |
| 2026-05-08 06:13 | 24.95754 | 55.87701 | 8739 ft | 295 kts | 300° |
| 2026-05-08 06:13 | 24.96774 | 55.85727 | 8322 ft | 297 kts | 300° |
| 2026-05-08 06:13 | 24.97775 | 55.83762 | 8011 ft | 294 kts | 300° |
| 2026-05-08 06:13 | 24.98838 | 55.81816 | 7605 ft | 294 kts | 310° |
| 2026-05-08 06:14 | 25.00131 | 55.80407 | 7265 ft | 292 kts | 317° |
| 2026-05-08 06:14 | 25.01484 | 55.78759 | 6959 ft | 290 kts | 309° |
| 2026-05-08 06:14 | 25.02663 | 55.76947 | 6610 ft | 291 kts | 305° |
| 2026-05-08 06:14 | 25.03764 | 55.75068 | 6241 ft | 291 kts | 304° |
| 2026-05-08 06:15 | 25.04830 | 55.73183 | 6003 ft | 286 kts | 303° |
| 2026-05-08 06:15 | 25.05871 | 55.71326 | 5635 ft | 287 kts | 303° |
| 2026-05-08 06:15 | 25.06902 | 55.69477 | 5470 ft | 276 kts | 303° |
| 2026-05-08 06:15 | 25.07867 | 55.67697 | 5398 ft | 265 kts | 303° |
| 2026-05-08 06:16 | 25.08785 | 55.65978 | 5327 ft | 252 kts | 303° |
| 2026-05-08 06:16 | 25.09658 | 55.64343 | 5103 ft | 247 kts | 303° |
| 2026-05-08 06:16 | 25.10541 | 55.62719 | 4798 ft | 247 kts | 304° |
| 2026-05-08 06:16 | 25.11448 | 55.61093 | 4485 ft | 246 kts | 305° |
| 2026-05-08 06:17 | 25.13264 | 55.57891 | 3866 ft | 243 kts | 306° |
| 2026-05-08 06:17 | 25.13942 | 55.56696 | 3627 ft | 237 kts | 306° |
| 2026-05-08 06:17 | 25.14714 | 55.55335 | 3360 ft | 230 kts | 306° |
| 2026-05-08 06:18 | 25.15552 | 55.53851 | 3065 ft | 224 kts | 307° |
| 2026-05-08 06:18 | 25.16366 | 55.52405 | 2777 ft | 219 kts | 307° |
| 2026-05-08 06:18 | 25.17158 | 55.50993 | 2492 ft | 214 kts | 307° |
| 2026-05-08 06:18 | 25.17929 | 55.49617 | 2211 ft | 210 kts | 307° |
| 2026-05-08 06:19 | 25.18674 | 55.48282 | 1932 ft | 193 kts | 307° |
| 2026-05-08 06:19 | 25.19361 | 55.47054 | 1681 ft | 181 kts | 308° |
| 2026-05-08 06:19 | 25.19975 | 55.45952 | 1439 ft | 160 kts | 309° |
| 2026-05-08 06:19 | 25.20552 | 55.44923 | 1234 ft | 155 kts | 309° |
| 2026-05-08 06:20 | 25.21110 | 55.43921 | 1022 ft | 154 kts | 309° |
| 2026-05-08 06:20 | 25.21671 | 55.42914 | 813 ft | 153 kts | 309° |
| 2026-05-08 06:20 | 25.22235 | 55.41903 | 580 ft | 152 kts | 308° |
| 2026-05-08 06:20 | 25.22791 | 55.40904 | 348 ft | 152 kts | 309° |
| 2026-05-08 06:21 | 25.23334 | 55.39923 | 132 ft | 150 kts | 308° |
| 2026-05-08 06:21 | 25.23858 | 55.38969 | 48 ft | 139 kts | 309° |
| 2026-05-08 06:21 | 25.24302 | 55.38203 | 45 ft | 91 kts | 302° |
| 2026-05-08 06:21 | 25.24565 | 55.37730 | 45 ft | 65 kts | 302° |
| 2026-05-08 06:22 | 25.24751 | 55.37371 | 45 ft | 35 kts | 292° |
| 2026-05-08 06:22 | 25.24784 | 55.37172 | 45 ft | 19 kts | 272° |
| 2026-05-08 06:22 | 25.24787 | 55.37087 | 45 ft | 0 kts | 271° |
| 2026-05-08 06:24 | 25.24787 | 55.37077 | 45 ft | 4 kts | 271° |
| 2026-05-08 06:25 | 25.24789 | 55.37020 | 45 ft | 10 kts | 276° |
| 2026-05-08 06:25 | 25.24811 | 55.36928 | 45 ft | 14 kts | 293° |
| 2026-05-08 06:25 | 25.24850 | 55.36837 | 45 ft | 12 kts | 289° |
| 2026-05-08 06:25 | 25.24870 | 55.36748 | 45 ft | 11 kts | 282° |
| 2026-05-08 06:26 | 25.24874 | 55.36666 | 45 ft | 10 kts | 251° |
| 2026-05-08 06:26 | 25.24829 | 55.36624 | 45 ft | 8 kts | 210° |
| 2026-05-08 06:26 | 25.24779 | 55.36591 | 45 ft | 8 kts | 212° |
| 2026-05-08 06:26 | 25.24746 | 55.36568 | 45 ft | 3 kts | 211° |
| 2026-05-08 06:27 | 25.24737 | 55.36563 | 45 ft | 0 kts | 211° |